Wetterdaten: Woche 01.01.18 - 07.01.18 (KW1)
Datum Zeit Temp. Aussen Temp. o. S. +5cm Feuchte Auss BlattFeu 1 Luftdruck Regen Sonnenschein Regendauer Solar Windben Empfang
01.01.2018 00:00 8,0 C 7,1 C 5,8 C 90 % 9 lf 998,2 hPa 0,0 l/m 0,00 h 0,23 h 0 W/m 37,7 km/h (5 Bft) 97,24 %
01.01.2018 01:00 8,2 C 7,9 C 5,3 C 86 % 2 lf 998,5 hPa 0,2 l/m 0,00 h 1,00 h 0 W/m 40,3 km/h (6 Bft) 94,49 %
01.01.2018 02:00 7,8 C 7,4 C 5,4 C 83 % 0 lf 998,6 hPa 0,0 l/m 0,00 h 0,17 h 0 W/m 44,1 km/h (6 Bft) 96,78 %
01.01.2018 03:00 7,7 C 7,5 C 5,9 C 82 % 0 lf 998,9 hPa 0,0 l/m 0,00 h 0,00 h 0 W/m 48,5 km/h (6 Bft) 96,87 %
01.01.2018 04:00 7,9 C 7,5 C 6,2 C 82 % 0 lf 999,5 hPa 0,0 l/m 0,00 h 0,03 h 0 W/m 55,4 km/h (7 Bft) 96,37 %
01.01.2018 05:00 7,3 C 7,1 C 5,6 C 83 % 0 lf 1000,1 hPa 0,0 l/m 0,00 h 0,00 h 0 W/m 53,1 km/h (7 Bft) 97,77 %
01.01.2018 06:00 6,9 C 6,6 C 5,2 C 84 % 0 lf 1000,9 hPa 0,0 l/m 0,00 h 0,07 h 0 W/m 47,2 km/h (6 Bft) 94,65 %
01.01.2018 07:00 6,6 C 6,2 C 5,0 C 86 % 0 lf 1001,6 hPa 0,0 l/m 0,00 h 0,00 h 0 W/m 46,1 km/h (6 Bft) 96,87 %
01.01.2018 08:00 6,6 C 6,4 C 5,0 C 86 % 0 lf 1002,3 hPa 0,0 l/m 0,00 h 0,00 h 9 W/m 38,2 km/h (5 Bft) 98,48 %
01.01.2018 09:00 6,5 C 6,4 C 4,8 C 85 % 1 lf 1002,7 hPa 0,0 l/m 0,10 h 0,13 h 28 W/m 41,5 km/h (6 Bft) 94,79 %
01.01.2018 10:00 6,3 C 6,9 C 4,9 C 89 % 9 lf 1002,6 hPa 0,0 l/m 0,40 h 0,90 h 104 W/m 31,7 km/h (5 Bft) 96,29 %
01.01.2018 11:00 7,6 C 10,7 C 6,9 C 85 % 0 lf 1001,9 hPa 0,0 l/m 0,97 h 0,23 h 209 W/m 36,3 km/h (5 Bft) 97,32 %
01.01.2018 12:00 8,5 C 11,2 C 7,7 C 80 % 0 lf 1000,9 hPa 0,0 l/m 0,67 h 0,00 h 202 W/m 31,0 km/h (5 Bft) 93,91 %
01.01.2018 13:00 8,6 C 9,2 C 7,8 C 78 % 0 lf 999,6 hPa 0,0 l/m 0,07 h 0,00 h 102 W/m 25,2 km/h (4 Bft) 98,29 %
01.01.2018 14:00 8,3 C 8,2 C 7,3 C 79 % 0 lf 998,5 hPa 0,0 l/m 0,00 h 0,00 h 44 W/m 23,0 km/h (4 Bft) 97,57 %
01.01.2018 15:00 8,0 C 7,2 C 6,2 C 81 % 0 lf 997,2 hPa 0,2 l/m 0,00 h 0,43 h 17 W/m 17,6 km/h (3 Bft) 94,88 %
01.01.2018 16:00 7,2 C 5,6 C 4,9 C 89 % 9 lf 996,1 hPa 1,6 l/m 0,00 h 1,00 h 5 W/m 16,2 km/h (3 Bft) 96,16 %
01.01.2018 17:00 6,4 C 5,4 C 4,4 C 93 % 14 lf 995,3 hPa 1,2 l/m 0,00 h 1,00 h 0 W/m 15,6 km/h (3 Bft) 97,51 %
01.01.2018 18:00 5,8 C 4,9 C 4,2 C 95 % 15 lf 994,8 hPa 1,4 l/m 0,00 h 1,00 h 0 W/m 15,5 km/h (3 Bft) 95,44 %
01.01.2018 19:00 5,3 C 4,4 C 3,9 C 95 % 15 lf 994,9 hPa 0,6 l/m 0,00 h 1,00 h 0 W/m 6,6 km/h (2 Bft) 98,22 %
01.01.2018 20:00 5,2 C 4,4 C 3,9 C 95 % 15 lf 995,4 hPa 0,2 l/m 0,00 h 1,00 h 0 W/m 0,0 km/h (0 Bft) 95,02 %
01.01.2018 21:00 5,2 C 4,8 C 3,9 C 96 % 15 lf 996,6 hPa 0,2 l/m 0,00 h 0,77 h 0 W/m 9,4 km/h (2 Bft) 96,01 %
01.01.2018 22:00 5,1 C 4,5 C 3,8 C 96 % 15 lf 998,3 hPa 0,6 l/m 0,00 h 1,00 h 0 W/m 25,6 km/h (4 Bft) 99,07 %
01.01.2018 23:00 4,7 C 4,2 C 3,3 C 96 % 15 lf 1000,3 hPa 0,8 l/m 0,00 h 1,00 h 0 W/m 24,4 km/h (4 Bft) 95,58 %
02.01.2018 00:00 4,7 C 4,4 C 3,3 C 97 % 15 lf 1001,7 hPa 0,6 l/m 0,00 h 1,00 h 0 W/m 20,0 km/h (4 Bft) 95,64 %
02.01.2018 01:00 4,7 C 4,2 C 3,3 C 97 % 15 lf 1002,4 hPa 0,0 l/m 0,00 h 0,27 h 0 W/m 21,4 km/h (4 Bft) 97,07 %
02.01.2018 02:00 4,7 C 4,3 C 3,2 C 97 % 15 lf 1003,3 hPa 0,0 l/m 0,00 h 0,37 h 0 W/m 22,6 km/h (4 Bft) 96,37 %
02.01.2018 03:00 4,9 C 4,4 C 3,3 C 97 % 15 lf 1004,0 hPa 0,4 l/m 0,00 h 0,73 h 0 W/m 21,4 km/h (4 Bft) 96,99 %
02.01.2018 04:00 4,9 C 4,4 C 3,4 C 97 % 15 lf 1004,4 hPa 0,2 l/m 0,00 h 0,60 h 0 W/m 18,0 km/h (3 Bft) 95,40 %
02.01.2018 05:00 4,8 C 4,4 C 3,4 C 97 % 15 lf 1005,1 hPa 0,0 l/m 0,00 h 0,12 h 0 W/m 17,6 km/h (3 Bft) 94,90 %
02.01.2018 06:00 5,2 C 5,0 C 3,9 C 97 % 15 lf 1006,5 hPa 0,0 l/m 0,00 h 0,00 h 0 W/m 22,1 km/h (4 Bft) 99,56 %
02.01.2018 07:00 5,4 C 5,0 C 3,9 C 97 % 15 lf 1007,8 hPa 0,0 l/m 0,00 h 0,28 h 0 W/m 21,7 km/h (4 Bft) 97,44 %
02.01.2018 08:00 5,4 C 4,9 C 3,7 C 97 % 14 lf 1008,8 hPa 0,0 l/m 0,00 h 0,20 h 5 W/m 24,1 km/h (4 Bft) 94,75 %
02.01.2018 09:00 5,3 C 5,0 C 3,9 C 95 % 2 lf 1010,2 hPa 0,0 l/m 0,00 h 0,00 h 19 W/m 23,1 km/h (4 Bft) 97,51 %
02.01.2018 10:00 5,6 C 5,9 C 4,2 C 94 % 0 lf 1010,9 hPa 0,0 l/m 0,00 h 0,00 h 57 W/m 21,7 km/h (4 Bft) 93,85 %
02.01.2018 11:00 5,8 C 6,0 C 4,5 C 94 % 8 lf 1011,2 hPa 0,2 l/m 0,00 h 0,43 h 61 W/m 22,1 km/h (4 Bft) 96,09 %
02.01.2018 12:00 6,2 C 6,6 C 4,7 C 93 % 3 lf 1011,4 hPa 0,0 l/m 0,03 h 0,60 h 78 W/m 29,1 km/h (5 Bft) 94,38 %
02.01.2018 13:00 6,6 C 8,1 C 5,0 C 89 % 0 lf 1010,9 hPa 0,0 l/m 0,40 h 0,00 h 136 W/m 25,3 km/h (4 Bft) 98,22 %
02.01.2018 14:00 6,7 C 7,2 C 4,9 C 87 % 0 lf 1010,7 hPa 0,0 l/m 0,00 h 0,00 h 87 W/m 18,4 km/h (3 Bft) 95,94 %
02.01.2018 15:00 6,5 C 6,7 C 5,0 C 86 % 0 lf 1010,2 hPa 0,0 l/m 0,00 h 0,00 h 36 W/m 21,8 km/h (4 Bft) 95,94 %
02.01.2018 16:00 6,4 C 6,1 C 4,9 C 86 % 0 lf 1009,8 hPa 0,0 l/m 0,00 h 0,00 h 8 W/m 17,4 km/h (3 Bft) 96,22 %
02.01.2018 17:00 6,3 C 6,1 C 5,0 C 87 % 0 lf 1008,9 hPa 0,0 l/m 0,00 h 0,00 h 0 W/m 17,7 km/h (3 Bft) 97,48 %
02.01.2018 18:00 6,6 C 6,6 C 5,2 C 87 % 0 lf 1008,0 hPa 0,0 l/m 0,00 h 0,13 h 0 W/m 23,4 km/h (4 Bft) 96,06 %
02.01.2018 19:00 6,7 C 6,0 C 4,5 C 86 % 2 lf 1006,8 hPa 0,0 l/m 0,00 h 0,73 h 0 W/m 27,0 km/h (4 Bft) 96,41 %
02.01.2018 20:00 6,3 C 5,0 C 3,9 C 90 % 3 lf 1005,2 hPa 0,4 l/m 0,00 h 1,00 h 0 W/m 30,6 km/h (5 Bft) 95,39 %
02.01.2018 21:00 5,7 C 5,0 C 4,0 C 94 % 13 lf 1003,8 hPa 0,2 l/m 0,00 h 0,93 h 0 W/m 28,9 km/h (5 Bft) 97,93 %
02.01.2018 22:00 6,1 C 5,9 C 4,8 C 96 % 11 lf 1002,3 hPa 0,6 l/m 0,00 h 0,67 h 0 W/m 20,8 km/h (4 Bft) 96,51 %
02.01.2018 23:00 7,3 C 6,8 C 5,8 C 97 % 15 lf 1000,5 hPa 0,8 l/m 0,00 h 1,00 h 0 W/m 25,7 km/h (4 Bft) 94,53 %
03.01.2018 00:00 7,9 C 7,3 C 6,2 C 97 % 15 lf 998,5 hPa 0,6 l/m 0,00 h 1,00 h 0 W/m 29,0 km/h (5 Bft) 97,00 %
03.01.2018 01:00 8,2 C 7,8 C 6,7 C 97 % 15 lf 996,1 hPa 0,0 l/m 0,00 h 0,87 h 0 W/m 26,9 km/h (4 Bft) 96,80 %
03.01.2018 02:00 8,7 C 8,1 C 7,0 C 97 % 15 lf 992,7 hPa 0,8 l/m 0,00 h 0,90 h 0 W/m 31,5 km/h (5 Bft) 95,95 %
03.01.2018 03:00 9,4 C 8,8 C 7,8 C 97 % 15 lf 989,1 hPa 1,4 l/m 0,00 h 1,00 h 0 W/m 35,2 km/h (5 Bft) 96,37 %
03.01.2018 04:00 10,5 C 9,8 C 8,8 C 97 % 15 lf 985,9 hPa 2,8 l/m 0,00 h 1,00 h 0 W/m 44,5 km/h (6 Bft) 95,65 %
03.01.2018 05:00 9,9 C 8,7 C 7,8 C 94 % 15 lf 985,9 hPa 3,6 l/m 0,00 h 1,00 h 0 W/m 48,6 km/h (6 Bft) 96,92 %
03.01.2018 06:00 9,5 C 8,2 C 6,8 C 90 % 15 lf 986,2 hPa 0,4 l/m 0,00 h 0,43 h 0 W/m 35,1 km/h (5 Bft) 97,65 %
03.01.2018 07:00 9,4 C 8,9 C 6,8 C 89 % 13 lf 985,8 hPa 0,0 l/m 0,00 h 0,00 h 0 W/m 36,6 km/h (5 Bft) 92,60 %
03.01.2018 08:00 6,3 C 5,1 C 3,6 C 90 % 14 lf 986,7 hPa 3,8 l/m 0,00 h 0,40 h 5 W/m 47,1 km/h (6 Bft) 98,79 %
03.01.2018 09:00 6,7 C 5,9 C 4,4 C 93 % 15 lf 987,5 hPa 0,0 l/m 0,00 h 0,10 h 16 W/m 37,2 km/h (5 Bft) 97,11 %
03.01.2018 10:00 7,2 C 7,2 C 4,6 C 86 % 8 lf 988,9 hPa 0,2 l/m 0,00 h 0,80 h 60 W/m 47,1 km/h (6 Bft) 94,28 %
03.01.2018 11:00 7,8 C 8,1 C 6,0 C 80 % 2 lf 989,5 hPa 0,0 l/m 0,03 h 0,33 h 91 W/m 51,2 km/h (7 Bft) 95,88 %
03.01.2018 12:00 7,4 C 7,0 C 5,0 C 84 % 15 lf 990,5 hPa 0,2 l/m 0,00 h 1,00 h 54 W/m 56,9 km/h (7 Bft) 97,37 %
03.01.2018 13:00 7,1 C 6,8 C 5,1 C 88 % 15 lf 991,5 hPa 0,2 l/m 0,00 h 1,00 h 85 W/m 55,8 km/h (7 Bft) 95,49 %
03.01.2018 14:00 7,4 C 7,1 C 5,1 C 87 % 15 lf 992,7 hPa 0,2 l/m 0,00 h 1,00 h 36 W/m 48,3 km/h (6 Bft) 97,01 %
03.01.2018 15:00 8,0 C 7,9 C 5,6 C 83 % 4 lf 993,8 hPa 0,0 l/m 0,00 h 1,00 h 24 W/m 52,8 km/h (7 Bft) 94,23 %
03.01.2018 16:00 7,7 C 7,1 C 5,2 C 85 % 13 lf 995,0 hPa 0,0 l/m 0,00 h 1,00 h 10 W/m 52,3 km/h (7 Bft) 97,15 %
03.01.2018 17:00 7,6 C 7,1 C 5,3 C 86 % 8 lf 996,0 hPa 0,6 l/m 0,00 h 0,73 h 0 W/m 44,8 km/h (6 Bft) 96,87 %
03.01.2018 18:00 7,3 C 6,5 C 5,3 C 90 % 15 lf 996,3 hPa 0,0 l/m 0,00 h 0,53 h 0 W/m 38,9 km/h (6 Bft) 95,60 %
03.01.2018 19:00 7,8 C 7,5 C 5,4 C 86 % 10 lf 996,5 hPa 0,0 l/m 0,00 h 0,87 h 0 W/m 47,2 km/h (6 Bft) 96,65 %
03.01.2018 20:00 6,9 C 5,7 C 4,3 C 88 % 14 lf 997,8 hPa 2,2 l/m 0,00 h 0,77 h 0 W/m 38,0 km/h (5 Bft) 96,51 %
03.01.2018 21:00 6,5 C 5,8 C 4,4 C 92 % 15 lf 998,1 hPa 0,2 l/m 0,00 h 0,03 h 0 W/m 38,8 km/h (5 Bft) 97,86 %
03.01.2018 22:00 6,9 C 6,0 C 4,5 C 90 % 13 lf 998,3 hPa 0,2 l/m 0,00 h 0,60 h 0 W/m 39,5 km/h (6 Bft) 95,30 %
03.01.2018 23:00 7,1 C 6,1 C 4,7 C 89 % 12 lf 998,2 hPa 0,2 l/m 0,00 h 0,67 h 0 W/m 41,2 km/h (6 Bft) 96,10 %
04.01.2018 00:00 7,7 C 7,2 C 5,4 C 85 % 0 lf 998,6 hPa 0,0 l/m 0,00 h 0,03 h 0 W/m 40,4 km/h (6 Bft) 97,26 %
04.01.2018 01:00 7,4 C 7,1 C 5,4 C 85 % 0 lf 998,4 hPa 0,0 l/m 0,00 h 0,00 h 0 W/m 37,8 km/h (5 Bft) 96,15 %
04.01.2018 02:00 7,3 C 7,2 C 5,6 C 85 % 0 lf 998,3 hPa 0,0 l/m 0,00 h 0,00 h 0 W/m 34,0 km/h (5 Bft) 96,37 %
04.01.2018 03:00 7,1 C 6,8 C 5,2 C 87 % 0 lf 998,6 hPa 0,0 l/m 0,00 h 0,00 h 0 W/m 33,0 km/h (5 Bft) 96,51 %
04.01.2018 04:00 6,7 C 6,7 C 5,0 C 89 % 0 lf 998,4 hPa 0,0 l/m 0,00 h 0,00 h 0 W/m 32,2 km/h (5 Bft) 95,33 %
04.01.2018 05:00 6,8 C 6,7 C 5,0 C 90 % 0 lf 998,5 hPa 0,0 l/m 0,00 h 0,00 h 0 W/m 30,2 km/h (5 Bft) 98,79 %
04.01.2018 06:00 6,9 C 6,7 C 5,1 C 91 % 0 lf 998,1 hPa 0,0 l/m 0,00 h 0,00 h 0 W/m 29,0 km/h (5 Bft) 94,36 %
04.01.2018 07:00 6,9 C 6,7 C 5,3 C 91 % 0 lf 997,5 hPa 0,0 l/m 0,00 h 0,00 h 0 W/m 24,3 km/h (4 Bft) 96,16 %
04.01.2018 08:00 6,9 C 6,7 C 5,3 C 91 % 0 lf 997,3 hPa 0,0 l/m 0,00 h 0,00 h 4 W/m 18,2 km/h (3 Bft) 98,01 %
04.01.2018 09:00 7,0 C 6,9 C 5,8 C 92 % 0 lf 997,2 hPa 0,0 l/m 0,00 h 0,00 h 12 W/m 16,7 km/h (3 Bft) 95,30 %
04.01.2018 10:00 7,2 C 7,1 C 6,1 C 93 % 3 lf 996,5 hPa 0,0 l/m 0,00 h 0,23 h 17 W/m 13,8 km/h (3 Bft) 95,92 %
04.01.2018 11:00 7,4 C 6,9 C 6,1 C 94 % 15 lf 995,7 hPa 0,2 l/m 0,00 h 0,67 h 45 W/m 9,6 km/h (2 Bft) 97,37 %
04.01.2018 12:00 7,6 C 7,2 C 6,7 C 95 % 14 lf 994,2 hPa 0,0 l/m 0,00 h 0,27 h 55 W/m 14,4 km/h (3 Bft) 94,75 %
04.01.2018 13:00 7,7 C 7,2 C 6,7 C 97 % 3 lf 992,4 hPa 0,2 l/m 0,00 h 0,67 h 59 W/m 15,3 km/h (3 Bft) 97,72 %
04.01.2018 14:00 7,7 C 7,2 C 6,7 C 97 % 13 lf 991,0 hPa 0,8 l/m 0,00 h 1,00 h 23 W/m 17,6 km/h (3 Bft) 95,12 %
04.01.2018 15:00 8,2 C 8,2 C 7,3 C 98 % 15 lf 990,3 hPa 0,8 l/m 0,00 h 0,67 h 17 W/m 14,3 km/h (3 Bft) 95,66 %
04.01.2018 16:00 10,2 C 9,9 C 8,8 C 99 % 15 lf 990,2 hPa 0,0 l/m 0,00 h 0,07 h 12 W/m 29,6 km/h (5 Bft) 98,02 %
04.01.2018 17:00 10,7 C 10,0 C 9,0 C 96 % 7 lf 990,1 hPa 0,0 l/m 0,00 h 0,00 h 0 W/m 35,1 km/h (5 Bft) 95,25 %
04.01.2018 18:00 11,0 C 10,5 C 8,9 C 85 % 0 lf 989,9 hPa 0,0 l/m 0,00 h 0,00 h 0 W/m 43,3 km/h (6 Bft) 95,82 %
04.01.2018 19:00 11,0 C 10,8 C 8,8 C 77 % 0 lf 990,2 hPa 0,0 l/m 0,00 h 0,00 h 0 W/m 48,1 km/h (6 Bft) 97,35 %
04.01.2018 20:00 10,5 C 10,4 C 8,8 C 79 % 0 lf 991,1 hPa 0,0 l/m 0,00 h 0,00 h 0 W/m 45,7 km/h (6 Bft) 97,10 %
04.01.2018 21:00 10,0 C 9,8 C 8,3 C 78 % 0 lf 992,0 hPa 0,0 l/m 0,00 h 0,00 h 0 W/m 46,4 km/h (6 Bft) 95,59 %
04.01.2018 22:00 9,3 C 8,9 C 7,3 C 77 % 0 lf 993,2 hPa 0,0 l/m 0,00 h 0,00 h 0 W/m 41,8 km/h (6 Bft) 96,45 %
04.01.2018 23:00 8,5 C 8,1 C 6,7 C 77 % 0 lf 994,1 hPa 0,0 l/m 0,00 h 0,00 h 0 W/m 41,7 km/h (6 Bft) 96,20 %
05.01.2018 00:00 8,1 C 7,8 C 6,1 C 79 % 0 lf 994,6 hPa 0,0 l/m 0,00 h 0,00 h 0 W/m 49,8 km/h (6 Bft) 97,64 %
05.01.2018 01:00 7,9 C 7,8 C 6,1 C 81 % 0 lf 994,8 hPa 0,0 l/m 0,00 h 0,00 h 0 W/m 46,5 km/h (6 Bft) 94,95 %
05.01.2018 02:00 8,1 C 7,8 C 6,6 C 83 % 0 lf 995,1 hPa 0,0 l/m 0,00 h 0,03 h 0 W/m 38,8 km/h (5 Bft) 96,43 %
05.01.2018 03:00 8,3 C 8,1 C 6,7 C 83 % 1 lf 994,7 hPa 0,0 l/m 0,00 h 0,07 h 0 W/m 31,2 km/h (5 Bft) 96,23 %
05.01.2018 04:00 7,8 C 6,5 C 5,0 C 87 % 15 lf 994,2 hPa 0,4 l/m 0,00 h 0,77 h 0 W/m 25,7 km/h (4 Bft) 97,98 %
05.01.2018 05:00 6,9 C 6,2 C 4,8 C 92 % 14 lf 993,6 hPa 0,0 l/m 0,00 h 0,22 h 0 W/m 24,0 km/h (4 Bft) 94,96 %
05.01.2018 06:00 8,0 C 8,0 C 6,2 C 94 % 1 lf 993,6 hPa 0,0 l/m 0,00 h 0,33 h 0 W/m 35,8 km/h (5 Bft) 95,73 %
05.01.2018 07:00 8,3 C 7,9 C 6,1 C 91 % 5 lf 994,4 hPa 0,0 l/m 0,00 h 0,30 h 0 W/m 31,8 km/h (5 Bft) 97,15 %
05.01.2018 08:00 7,9 C 7,7 C 5,7 C 90 % 0 lf 994,9 hPa 0,0 l/m 0,07 h 0,00 h 11 W/m 27,6 km/h (4 Bft) 96,44 %
05.01.2018 09:00 7,9 C 8,0 C 6,4 C 88 % 0 lf 995,7 hPa 0,0 l/m 0,17 h 0,00 h 46 W/m 27,2 km/h (4 Bft) 95,08 %
05.01.2018 10:00 8,3 C 8,9 C 7,1 C 87 % 0 lf 996,0 hPa 0,0 l/m 0,27 h 0,00 h 96 W/m 24,8 km/h (4 Bft) 97,44 %
05.01.2018 11:00 8,5 C 9,1 C 7,8 C 87 % 0 lf 996,3 hPa 0,0 l/m 0,00 h 0,00 h 99 W/m 21,6 km/h (4 Bft) 95,46 %
05.01.2018 12:00 9,0 C 9,8 C 8,5 C 86 % 0 lf 996,4 hPa 0,0 l/m 0,00 h 0,00 h 115 W/m 19,7 km/h (3 Bft) 97,18 %
05.01.2018 13:00 9,3 C 10,2 C 8,9 C 85 % 0 lf 996,2 hPa 0,0 l/m 0,00 h 0,00 h 112 W/m 18,5 km/h (3 Bft) 95,79 %
05.01.2018 14:00 9,5 C 10,2 C 8,9 C 86 % 0 lf 996,3 hPa 0,0 l/m 0,00 h 0,00 h 100 W/m 18,4 km/h (3 Bft) 95,84 %
05.01.2018 15:00 9,5 C 9,4 C 8,2 C 86 % 0 lf 996,5 hPa 0,0 l/m 0,00 h 0,00 h 51 W/m 15,9 km/h (3 Bft) 97,65 %
05.01.2018 16:00 9,1 C 8,6 C 7,0 C 87 % 0 lf 996,6 hPa 0,0 l/m 0,00 h 0,00 h 14 W/m 13,1 km/h (3 Bft) 96,27 %
05.01.2018 17:00 8,8 C 8,3 C 6,7 C 88 % 0 lf 996,5 hPa 0,0 l/m 0,00 h 0,00 h 0 W/m 17,2 km/h (3 Bft) 94,16 %
05.01.2018 18:00 8,7 C 8,3 C 6,8 C 86 % 0 lf 996,8 hPa 0,0 l/m 0,00 h 0,00 h 0 W/m 20,1 km/h (4 Bft) 98,26 %
05.01.2018 19:00 8,8 C 8,6 C 7,1 C 85 % 0 lf 997,3 hPa 0,0 l/m 0,00 h 0,00 h 0 W/m 28,1 km/h (4 Bft) 96,04 %
05.01.2018 20:00 8,0 C 7,4 C 5,8 C 85 % 0 lf 998,1 hPa 0,0 l/m 0,00 h 0,00 h 0 W/m 26,3 km/h (4 Bft) 94,83 %
05.01.2018 21:00 7,0 C 6,4 C 4,8 C 86 % 0 lf 998,9 hPa 0,0 l/m 0,00 h 0,00 h 0 W/m 24,6 km/h (4 Bft) 97,79 %
05.01.2018 22:00 6,3 C 5,6 C 4,1 C 88 % 0 lf 999,8 hPa 0,0 l/m 0,00 h 0,00 h 0 W/m 17,3 km/h (3 Bft) 95,73 %
05.01.2018 23:00 5,7 C 5,0 C 3,4 C 90 % 0 lf 1000,5 hPa 0,0 l/m 0,00 h 0,00 h 0 W/m 13,4 km/h (3 Bft) 97,65 %
06.01.2018 00:00 5,3 C 4,9 C 3,0 C 91 % 0 lf 1001,3 hPa 0,0 l/m 0,00 h 0,00 h 0 W/m 13,6 km/h (3 Bft) 96,00 %
06.01.2018 01:00 5,0 C 4,4 C 2,4 C 91 % 0 lf 1001,6 hPa 0,0 l/m 0,00 h 0,00 h 0 W/m 10,8 km/h (2 Bft) 95,08 %
06.01.2018 02:00 4,3 C 3,5 C 1,3 C 91 % 1 lf 1001,9 hPa 0,0 l/m 0,00 h 0,00 h 0 W/m 8,6 km/h (2 Bft) 97,02 %
06.01.2018 03:00 3,8 C 3,4 C 1,6 C 93 % 1 lf 1002,6 hPa 0,0 l/m 0,00 h 0,00 h 0 W/m 9,8 km/h (2 Bft) 97,86 %
06.01.2018 04:00 3,7 C 3,3 C 1,5 C 94 % 1 lf 1002,7 hPa 0,0 l/m 0,00 h 0,00 h 0 W/m 8,2 km/h (2 Bft) 94,66 %
06.01.2018 05:00 3,4 C 3,1 C 1,4 C 94 % 1 lf 1002,9 hPa 0,0 l/m 0,00 h 0,00 h 0 W/m 9,3 km/h (2 Bft) 97,23 %
06.01.2018 06:00 3,3 C 3,3 C 1,7 C 94 % 0 lf 1003,5 hPa 0,0 l/m 0,00 h 0,00 h 0 W/m 10,5 km/h (2 Bft) 96,33 %
06.01.2018 07:00 3,1 C 2,4 C 0,8 C 94 % 0 lf 1003,8 hPa 0,0 l/m 0,00 h 0,00 h 0 W/m 3,8 km/h (1 Bft) 96,98 %
06.01.2018 08:00 2,4 C 1,1 C 0,0 C 93 % 1 lf 1004,4 hPa 0,0 l/m 0,00 h 0,00 h 7 W/m 0,4 km/h (0 Bft) 95,95 %
06.01.2018 09:00 2,0 C 1,9 C 0,7 C 94 % 1 lf 1005,2 hPa 0,0 l/m 0,00 h 0,00 h 33 W/m 0,7 km/h (0 Bft) 96,36 %
06.01.2018 10:00 2,5 C 3,7 C 2,5 C 95 % 0 lf 1006,0 hPa 0,0 l/m 0,00 h 0,00 h 65 W/m 3,7 km/h (1 Bft) 96,50 %
06.01.2018 11:00 3,6 C 5,1 C 4,3 C 96 % 0 lf 1006,5 hPa 0,0 l/m 0,00 h 0,00 h 74 W/m 1,7 km/h (1 Bft) 96,85 %
06.01.2018 12:00 4,6 C 6,0 C 5,2 C 96 % 0 lf 1007,0 hPa 0,0 l/m 0,00 h 0,00 h 80 W/m 0,0 km/h (0 Bft) 96,28 %
06.01.2018 13:00 5,3 C 6,5 C 5,7 C 95 % 0 lf 1007,2 hPa 0,0 l/m 0,00 h 0,00 h 79 W/m 1,4 km/h (1 Bft) 96,08 %
06.01.2018 14:00 5,8 C 6,8 C 5,8 C 94 % 0 lf 1007,8 hPa 0,0 l/m 0,00 h 0,00 h 77 W/m 2,9 km/h (1 Bft) 96,48 %
06.01.2018 15:00 6,1 C 6,4 C 5,2 C 93 % 0 lf 1008,5 hPa 0,0 l/m 0,00 h 0,00 h 38 W/m 6,2 km/h (2 Bft) 97,94 %
06.01.2018 16:00 5,8 C 5,6 C 4,4 C 93 % 0 lf 1008,9 hPa 0,0 l/m 0,00 h 0,00 h 12 W/m 9,7 km/h (2 Bft) 94,02 %
06.01.2018 17:00 5,5 C 5,1 C 4,2 C 93 % 0 lf 1009,7 hPa 0,0 l/m 0,00 h 0,00 h 0 W/m 11,3 km/h (2 Bft) 97,00 %
06.01.2018 18:00 5,3 C 5,0 C 4,0 C 94 % 0 lf 1010,4 hPa 0,0 l/m 0,00 h 0,00 h 0 W/m 12,4 km/h (3 Bft) 98,01 %
06.01.2018 19:00 5,2 C 5,0 C 3,9 C 94 % 0 lf 1011,5 hPa 0,0 l/m 0,00 h 0,00 h 0 W/m 11,3 km/h (2 Bft) 96,16 %
06.01.2018 20:00 5,1 C 5,0 C 3,9 C 94 % 0 lf 1012,5 hPa 0,0 l/m 0,00 h 0,00 h 0 W/m 12,4 km/h (3 Bft) 95,11 %
06.01.2018 21:00 5,2 C 5,0 C 3,9 C 94 % 1 lf 1013,4 hPa 0,0 l/m 0,00 h 0,00 h 0 W/m 15,8 km/h (3 Bft) 96,80 %
06.01.2018 22:00 5,2 C 5,0 C 3,9 C 94 % 0 lf 1014,1 hPa 0,0 l/m 0,00 h 0,00 h 0 W/m 17,1 km/h (3 Bft) 96,04 %
06.01.2018 23:00 5,2 C 5,4 C 4,3 C 94 % 0 lf 1014,9 hPa 0,0 l/m 0,00 h 0,00 h 0 W/m 21,2 km/h (4 Bft) 97,05 %
07.01.2018 00:00 5,3 C 5,2 C 4,1 C 93 % 1 lf 1015,6 hPa 0,0 l/m 0,00 h 0,00 h 0 W/m 24,2 km/h (4 Bft) 95,48 %
07.01.2018 01:00 4,6 C 4,4 C 3,3 C 93 % 2 lf 1016,3 hPa 0,0 l/m 0,00 h 0,10 h 0 W/m 23,9 km/h (4 Bft) 95,93 %
07.01.2018 02:00 4,1 C 3,7 C 2,6 C 93 % 14 lf 1017,3 hPa 0,0 l/m 0,00 h 0,87 h 0 W/m 26,5 km/h (4 Bft) 98,77 %
07.01.2018 03:00 3,7 C 3,3 C 2,2 C 94 % 15 lf 1018,1 hPa 0,0 l/m 0,00 h 0,80 h 0 W/m 26,8 km/h (4 Bft) 94,98 %
07.01.2018 04:00 3,7 C 3,7 C 2,2 C 94 % 15 lf 1018,8 hPa 0,0 l/m 0,00 h 0,23 h 0 W/m 25,8 km/h (4 Bft) 96,16 %
07.01.2018 05:00 3,8 C 3,9 C 2,2 C 94 % 4 lf 1019,2 hPa 0,0 l/m 0,00 h 0,40 h 0 W/m 30,2 km/h (5 Bft) 97,94 %
07.01.2018 06:00 3,9 C 3,9 C 2,6 C 91 % 0 lf 1019,9 hPa 0,0 l/m 0,00 h 0,20 h 0 W/m 34,2 km/h (5 Bft) 95,77 %
07.01.2018 07:00 3,9 C 3,9 C 2,8 C 90 % 0 lf 1020,7 hPa 0,0 l/m 0,00 h 0,00 h 0 W/m 37,1 km/h (5 Bft) 96,04 %
07.01.2018 08:00 3,8 C 3,9 C 2,8 C 89 % 0 lf 1021,7 hPa 0,0 l/m 0,00 h 0,00 h 4 W/m 37,6 km/h (5 Bft) 97,37 %
07.01.2018 09:00 3,7 C 3,9 C 2,8 C 88 % 0 lf 1022,6 hPa 0,0 l/m 0,00 h 0,00 h 24 W/m 36,2 km/h (5 Bft) 94,44 %
07.01.2018 10:00 3,5 C 3,8 C 2,9 C 87 % 0 lf 1023,6 hPa 0,2 l/m 0,00 h 0,00 h 48 W/m 32,1 km/h (5 Bft) 98,86 %
07.01.2018 11:00 3,3 C 3,9 C 3,3 C 86 % 0 lf 1024,2 hPa 0,0 l/m 0,00 h 0,00 h 78 W/m 32,0 km/h (5 Bft) 95,45 %
07.01.2018 12:00 3,4 C 3,9 C 3,2 C 86 % 0 lf 1024,1 hPa 0,0 l/m 0,00 h 0,00 h 79 W/m 33,6 km/h (5 Bft) 94,77 %
07.01.2018 13:00 3,2 C 3,5 C 2,8 C 86 % 0 lf 1023,9 hPa 0,0 l/m 0,00 h 0,00 h 57 W/m 35,9 km/h (5 Bft) 97,78 %
07.01.2018 14:00 3,2 C 3,6 C 2,4 C 85 % 0 lf 1023,5 hPa 0,0 l/m 0,00 h 0,00 h 56 W/m 35,5 km/h (5 Bft) 97,20 %
07.01.2018 15:00 2,8 C 2,8 C 1,4 C 85 % 0 lf 1023,7 hPa 0,0 l/m 0,00 h 0,00 h 25 W/m 34,9 km/h (5 Bft) 93,19 %
07.01.2018 16:00 2,5 C 2,3 C 1,2 C 85 % 0 lf 1024,0 hPa 0,0 l/m 0,00 h 0,00 h 12 W/m 35,5 km/h (5 Bft) 98,30 %
07.01.2018 17:00 2,6 C 2,8 C 1,7 C 85 % 0 lf 1024,4 hPa 0,0 l/m 0,00 h 0,00 h 0 W/m 32,3 km/h (5 Bft) 95,93 %
07.01.2018 18:00 2,7 C 2,8 C 1,7 C 85 % 0 lf 1024,6 hPa 0,0 l/m 0,00 h 0,00 h 0 W/m 32,5 km/h (5 Bft) 97,37 %
07.01.2018 19:00 2,4 C 2,2 C 1,2 C 85 % 0 lf 1025,0 hPa 0,0 l/m 0,00 h 0,00 h 0 W/m 32,2 km/h (5 Bft) 96,06 %
07.01.2018 20:00 2,2 C 2,2 C 1,0 C 86 % 0 lf 1025,2 hPa 0,0 l/m 0,00 h 0,00 h 0 W/m 33,2 km/h (5 Bft) 95,58 %
07.01.2018 21:00 2,1 C 2,2 C 1,1 C 86 % 0 lf 1025,2 hPa 0,0 l/m 0,00 h 0,00 h 0 W/m 32,8 km/h (5 Bft) 97,44 %
07.01.2018 22:00 2,0 C 2,2 C 1,1 C 86 % 0 lf 1025,0 hPa 0,0 l/m 0,00 h 0,00 h 0 W/m 33,1 km/h (5 Bft) 97,51 %
07.01.2018 23:00 2,0 C 2,2 C 1,1 C 87 % 0 lf 1024,9 hPa 0,0 l/m 0,00 h 0,00 h 0 W/m 34,1 km/h (5 Bft) 94,59 %
Min-Datum _ 06.01.18 06.01.18 06.01.18 04.01.18 01.01.18 03.01.18 - - - - 01.01.18 02.01.18
_ Min-Zeit 09:16 08:20 08:20 19:04 00:42 04:42 - - - - 19:54 10:36
Minimum _ 1,9 C 0,6 C -0,6 C 76 % 0 lf 985,0 hPa - - - - 0,0 km/h (0 Bft) 16,67 %
Max-Datum _ 04.01.18 01.01.18 03.01.18 04.01.18 01.01.18 07.01.18 03.01.18 01.01.18 02.01.18 01.01.18 03.01.18 01.01.18
_ Max-Zeit 18:34 11:46 05:00 15:56 00:00 20:22 08:12 09:50 04:05 12:16 08:06 00:44
Maximum _ 11,1 C 13,3 C 9,4 C 99 % 15 lf 1025,4 hPa 3,8 l/m 0,03 h 0,08 h 280 W/m 96,9 km/h
W (10 Bft)
100,00 %
Durchschnitt _ 6,4 C 6,2 C 4,8 C 90 % 5 lf 1002,6 hPa #30,6 l/m #3:10 h #45:07 h 53 W/m 27,4 km/h (4 Bft) 96,36 %
© 2018 W. Hausmann